createdAt,value
2023-05-23T00:00:43.349Z,0.00
2023-05-23T00:01:43.652Z,0.00
2023-05-23T00:02:43.442Z,0.00
2023-05-23T00:03:43.475Z,0.00
2023-05-23T00:04:43.333Z,0.00
2023-05-23T00:05:43.328Z,0.00
2023-05-23T00:06:43.324Z,0.00
2023-05-23T00:07:43.323Z,0.00
2023-05-23T00:08:43.331Z,0.00
2023-05-23T00:09:43.320Z,0.00
2023-05-23T00:10:43.310Z,0.00
2023-05-23T00:11:43.314Z,0.00
2023-05-23T00:12:43.303Z,0.00
2023-05-23T00:13:43.394Z,0.00
2023-05-23T00:14:43.299Z,0.00
2023-05-23T00:15:43.304Z,0.00
2023-05-23T00:16:43.305Z,0.00
2023-05-23T00:17:43.331Z,0.00
2023-05-23T00:18:43.343Z,0.00
2023-05-23T00:19:43.281Z,0.00
2023-05-23T00:20:43.379Z,0.00
2023-05-23T00:21:43.282Z,0.00
2023-05-23T00:22:43.415Z,0.00
2023-05-23T00:23:43.268Z,0.00
2023-05-23T00:24:43.264Z,0.00
2023-05-23T00:25:43.326Z,0.00
2023-05-23T00:26:43.262Z,0.00
2023-05-23T00:27:43.284Z,0.00
2023-05-23T00:28:43.248Z,0.00
2023-05-23T00:29:43.334Z,0.00
2023-05-23T00:30:43.310Z,0.00
2023-05-23T00:31:43.269Z,0.00
2023-05-23T00:32:43.268Z,0.00
2023-05-23T00:33:43.271Z,0.00
2023-05-23T00:34:43.229Z,0.00
2023-05-23T00:35:43.227Z,0.00
2023-05-23T00:36:43.217Z,0.00
2023-05-23T00:37:43.225Z,0.00
2023-05-23T00:38:43.243Z,0.00
2023-05-23T00:39:43.206Z,0.00
2023-05-23T00:40:43.208Z,0.00
2023-05-23T00:41:43.202Z,0.00
2023-05-23T00:42:43.200Z,0.00
2023-05-23T00:43:43.197Z,0.00
2023-05-23T00:44:43.192Z,0.00
2023-05-23T00:45:43.360Z,0.00
2023-05-23T00:46:43.218Z,0.00
2023-05-23T00:47:43.196Z,0.00
2023-05-23T00:48:43.180Z,0.00
2023-05-23T00:49:43.173Z,0.00
2023-05-23T00:50:43.177Z,0.00
2023-05-23T00:51:43.218Z,0.00
2023-05-23T00:52:43.161Z,0.00
2023-05-23T00:53:43.158Z,0.00
2023-05-23T00:54:43.157Z,0.00
2023-05-23T00:55:43.330Z,0.00
2023-05-23T00:56:43.147Z,0.00
2023-05-23T00:57:43.146Z,0.00
2023-05-23T00:58:43.138Z,0.00
2023-05-23T00:59:43.135Z,0.00
2023-05-23T01:00:43.136Z,0.00
2023-05-23T01:01:43.343Z,0.00
2023-05-23T01:02:43.177Z,0.00
2023-05-23T01:03:43.204Z,0.00
2023-05-23T01:04:43.119Z,0.00
2023-05-23T01:05:43.248Z,0.00
2023-05-23T01:06:43.103Z,0.00
2023-05-23T01:07:43.099Z,0.00
2023-05-23T01:08:43.107Z,0.00
2023-05-23T01:09:43.090Z,0.00
2023-05-23T01:10:43.087Z,0.00
2023-05-23T01:11:43.085Z,0.00
2023-05-23T01:12:43.078Z,0.00
2023-05-23T01:13:43.081Z,0.00
2023-05-23T01:14:43.073Z,0.00
2023-05-23T01:15:43.279Z,0.00
2023-05-23T01:16:43.102Z,0.00
2023-05-23T01:17:43.159Z,0.00
2023-05-23T01:18:43.056Z,0.00
2023-05-23T01:19:43.063Z,0.00
2023-05-23T01:20:43.053Z,0.00
2023-05-23T01:21:43.065Z,0.00
2023-05-23T01:22:43.044Z,0.00
2023-05-23T01:23:43.032Z,0.00
2023-05-23T01:24:43.028Z,0.00
2023-05-23T01:25:43.072Z,0.00
2023-05-23T01:26:43.021Z,0.00
2023-05-23T01:27:43.061Z,0.00
2023-05-23T01:28:43.013Z,0.00
2023-05-23T01:29:43.010Z,0.00
2023-05-23T01:30:43.004Z,0.00
2023-05-23T01:31:43.050Z,0.00
2023-05-23T01:32:43.059Z,0.00
2023-05-23T01:33:42.997Z,0.00
2023-05-23T01:34:42.994Z,0.00
2023-05-23T01:35:42.991Z,0.00
2023-05-23T01:36:43.034Z,0.00
2023-05-23T01:37:42.980Z,0.00
2023-05-23T01:38:43.064Z,0.00
2023-05-23T01:39:42.975Z,0.00
2023-05-23T01:40:42.966Z,0.00
2023-05-23T01:41:42.963Z,0.00
2023-05-23T01:42:42.958Z,0.00
2023-05-23T01:43:42.956Z,0.00
2023-05-23T01:44:42.972Z,0.00
2023-05-23T01:45:43.110Z,0.00
2023-05-23T01:46:42.945Z,0.00
2023-05-23T01:47:42.959Z,0.00
2023-05-23T01:48:42.936Z,0.00
2023-05-23T01:49:43.018Z,0.00
2023-05-23T01:50:42.934Z,0.00
2023-05-23T01:51:42.942Z,0.00
2023-05-23T01:52:42.923Z,0.00
2023-05-23T01:53:42.919Z,0.00
2023-05-23T01:54:42.919Z,0.00
2023-05-23T01:55:42.918Z,0.00
2023-05-23T01:56:42.909Z,0.00
2023-05-23T01:57:42.915Z,0.00
2023-05-23T01:58:42.897Z,0.00
2023-05-23T01:59:42.901Z,0.00
2023-05-23T02:00:42.889Z,0.00
2023-05-23T02:01:42.916Z,0.00
2023-05-23T02:02:42.946Z,0.00
2023-05-23T02:03:42.963Z,0.00
2023-05-23T02:04:42.880Z,0.00
2023-05-23T02:05:43.372Z,0.00
2023-05-23T02:06:42.881Z,0.00
2023-05-23T02:07:42.858Z,0.00
2023-05-23T02:08:42.861Z,0.00
2023-05-23T02:09:42.860Z,0.00
2023-05-23T02:10:42.870Z,0.00
2023-05-23T02:11:42.874Z,0.00
2023-05-23T02:12:42.846Z,0.00
2023-05-23T02:13:42.848Z,0.00
2023-05-23T02:14:42.835Z,0.00
2023-05-23T02:15:42.974Z,0.00
2023-05-23T02:16:42.879Z,0.00
2023-05-23T02:17:42.885Z,0.00
2023-05-23T02:18:42.834Z,0.00
2023-05-23T02:19:42.818Z,0.00
2023-05-23T02:20:42.836Z,0.00
2023-05-23T02:21:42.903Z,0.00
2023-05-23T02:22:42.802Z,0.00
2023-05-23T02:23:42.812Z,0.00
2023-05-23T02:24:42.799Z,0.00
2023-05-23T02:25:43.089Z,0.00
2023-05-23T02:26:42.793Z,0.00
2023-05-23T02:27:42.784Z,0.00
2023-05-23T02:28:42.779Z,0.00
2023-05-23T02:29:42.786Z,0.00
2023-05-23T02:30:42.771Z,0.00
2023-05-23T02:31:42.874Z,0.00
2023-05-23T02:32:42.821Z,0.00
2023-05-23T02:33:42.765Z,0.00
2023-05-23T02:34:42.767Z,0.00
2023-05-23T02:35:42.948Z,0.00
2023-05-23T02:36:42.744Z,0.00
2023-05-23T02:37:42.850Z,0.00
2023-05-23T02:38:42.745Z,0.00
2023-05-23T02:39:42.740Z,0.00
2023-05-23T02:40:42.735Z,0.00
2023-05-23T02:41:42.730Z,0.00
2023-05-23T02:42:42.752Z,0.00
2023-05-23T02:43:43.465Z,0.00
2023-05-23T02:44:42.714Z,0.00
2023-05-23T02:45:43.127Z,0.00
2023-05-23T02:46:42.853Z,0.00
2023-05-23T02:47:42.756Z,0.00
2023-05-23T02:48:42.713Z,0.00
2023-05-23T02:49:42.703Z,0.00
2023-05-23T02:50:42.695Z,0.00
2023-05-23T02:51:42.697Z,0.00
2023-05-23T02:52:42.690Z,0.00
2023-05-23T02:53:42.787Z,0.00
2023-05-23T02:54:42.678Z,0.00
2023-05-23T02:55:42.912Z,0.00
2023-05-23T02:56:42.672Z,0.00
2023-05-23T02:57:42.669Z,0.00
2023-05-23T02:58:42.661Z,0.00
2023-05-23T02:59:42.678Z,0.00
2023-05-23T03:00:42.652Z,0.00
2023-05-23T03:01:42.712Z,0.00
2023-05-23T03:02:42.710Z,0.00
2023-05-23T03:03:42.794Z,0.00
2023-05-23T03:04:42.667Z,0.00
2023-05-23T03:05:42.899Z,0.00
2023-05-23T03:06:42.636Z,0.00
2023-05-23T03:07:42.696Z,0.00
2023-05-23T03:08:42.638Z,0.00
2023-05-23T03:09:42.764Z,0.00
2023-05-23T03:10:42.645Z,0.00
2023-05-23T03:11:42.649Z,0.00
2023-05-23T03:12:42.665Z,0.00
2023-05-23T03:13:42.615Z,0.00
2023-05-23T03:14:42.612Z,0.00
2023-05-23T03:15:42.731Z,0.00
2023-05-23T03:16:42.732Z,0.00
2023-05-23T03:17:42.782Z,0.00
2023-05-23T03:18:42.618Z,0.00
2023-05-23T03:19:42.669Z,0.00
2023-05-23T03:20:42.595Z,0.00
2023-05-23T03:21:42.592Z,5.63
2023-05-23T03:22:42.586Z,5.63
2023-05-23T03:23:42.581Z,5.63
2023-05-23T03:24:42.569Z,5.63
2023-05-23T03:25:42.800Z,5.63
2023-05-23T03:26:42.561Z,5.63
2023-05-23T03:27:42.594Z,5.63
2023-05-23T03:28:42.554Z,5.63
2023-05-23T03:29:42.554Z,5.63
2023-05-23T03:30:42.543Z,5.63
2023-05-23T03:31:42.602Z,5.63
2023-05-23T03:32:42.618Z,5.63
2023-05-23T03:33:42.531Z,5.63
2023-05-23T03:34:42.534Z,5.63
2023-05-23T03:35:42.734Z,5.63
2023-05-23T03:36:42.519Z,5.63
2023-05-23T03:37:42.533Z,5.63
2023-05-23T03:38:42.510Z,5.63
2023-05-23T03:39:42.509Z,5.63
2023-05-23T03:40:42.506Z,5.63
2023-05-23T03:41:42.600Z,5.63
2023-05-23T03:42:42.498Z,5.63
2023-05-23T03:43:42.488Z,5.63
2023-05-23T03:44:42.484Z,5.63
2023-05-23T03:45:42.670Z,5.63
2023-05-23T03:46:42.545Z,5.63
2023-05-23T03:47:42.506Z,5.63
2023-05-23T03:48:42.468Z,5.63
2023-05-23T03:49:42.466Z,5.63
2023-05-23T03:50:42.461Z,5.63
2023-05-23T03:51:42.453Z,11.25
2023-05-23T03:52:42.460Z,11.25
2023-05-23T03:53:42.446Z,11.25
2023-05-23T03:54:42.449Z,11.25
2023-05-23T03:55:42.798Z,11.25
2023-05-23T03:56:42.442Z,11.25
2023-05-23T03:57:42.535Z,11.25
2023-05-23T03:58:42.431Z,11.25
2023-05-23T03:59:42.422Z,11.25
2023-05-23T04:00:42.417Z,11.25
2023-05-23T04:01:42.421Z,11.25
2023-05-23T04:02:42.519Z,11.25
2023-05-23T04:03:42.534Z,11.25
2023-05-23T04:04:42.421Z,11.25
2023-05-23T04:05:42.724Z,11.25
2023-05-23T04:06:42.400Z,16.88
2023-05-23T04:07:42.394Z,16.88
2023-05-23T04:08:42.387Z,16.88
2023-05-23T04:09:42.388Z,16.88
2023-05-23T04:10:42.382Z,16.88
2023-05-23T04:11:42.371Z,16.88
2023-05-23T04:12:42.377Z,16.88
2023-05-23T04:13:42.366Z,16.88
2023-05-23T04:14:42.358Z,16.88
2023-05-23T04:15:42.577Z,16.88
2023-05-23T04:16:42.449Z,22.50
2023-05-23T04:17:42.423Z,22.50
2023-05-23T04:18:42.341Z,22.50
2023-05-23T04:19:42.446Z,22.50
2023-05-23T04:20:42.332Z,22.50
2023-05-23T04:21:42.323Z,22.50
2023-05-23T04:22:42.335Z,22.50
2023-05-23T04:23:42.303Z,22.50
2023-05-23T04:24:42.306Z,22.50
2023-05-23T04:25:42.488Z,22.50
2023-05-23T04:26:42.289Z,22.50
2023-05-23T04:27:42.295Z,22.50
2023-05-23T04:28:42.282Z,22.50
2023-05-23T04:29:42.364Z,22.50
2023-05-23T04:30:42.270Z,22.50
2023-05-23T04:31:42.286Z,22.50
2023-05-23T04:32:42.291Z,22.50
2023-05-23T04:33:42.261Z,22.50
2023-05-23T04:34:42.261Z,28.13
2023-05-23T04:35:42.348Z,28.13
2023-05-23T04:36:42.251Z,28.13
2023-05-23T04:37:42.247Z,33.75
2023-05-23T04:38:42.239Z,33.75
2023-05-23T04:39:42.334Z,33.75
2023-05-23T04:40:42.236Z,33.75
2023-05-23T04:41:42.228Z,33.75
2023-05-23T04:42:42.223Z,39.38
2023-05-23T04:43:42.211Z,39.38
2023-05-23T04:44:42.215Z,39.38
2023-05-23T04:45:42.624Z,39.38
2023-05-23T04:46:42.543Z,45.00
2023-05-23T04:47:42.251Z,45.00
2023-05-23T04:48:42.213Z,45.00
2023-05-23T04:49:42.200Z,45.00
2023-05-23T04:50:42.191Z,50.63
2023-05-23T04:51:42.188Z,45.00
2023-05-23T04:52:42.181Z,45.00
2023-05-23T04:53:42.210Z,39.38
2023-05-23T04:54:42.173Z,39.38
2023-05-23T04:55:42.426Z,39.38
2023-05-23T04:56:42.162Z,39.38
2023-05-23T04:57:42.160Z,39.38
2023-05-23T04:58:42.206Z,39.38
2023-05-23T04:59:42.152Z,45.00
2023-05-23T05:00:42.375Z,50.63
2023-05-23T05:01:42.316Z,50.63
2023-05-23T05:02:42.185Z,50.63
2023-05-23T05:03:42.149Z,50.63
2023-05-23T05:04:42.125Z,50.63
2023-05-23T05:05:42.129Z,45.00
2023-05-23T05:06:42.119Z,39.38
2023-05-23T05:07:42.114Z,39.38
2023-05-23T05:08:42.118Z,39.38
2023-05-23T05:09:42.104Z,39.38
2023-05-23T05:10:42.339Z,33.75
2023-05-23T05:11:42.098Z,39.38
2023-05-23T05:12:42.093Z,39.38
2023-05-23T05:13:42.089Z,39.38
2023-05-23T05:14:42.083Z,39.38
2023-05-23T05:15:42.080Z,39.38
2023-05-23T05:16:42.092Z,39.38
2023-05-23T05:17:42.243Z,45.00
2023-05-23T05:18:42.065Z,45.00
2023-05-23T05:19:42.062Z,45.00
2023-05-23T05:20:42.224Z,50.63
2023-05-23T05:21:42.058Z,50.63
2023-05-23T05:22:42.054Z,50.63
2023-05-23T05:23:42.062Z,50.63
2023-05-23T05:24:42.041Z,50.63
2023-05-23T05:25:42.036Z,56.25
2023-05-23T05:26:42.047Z,56.25
2023-05-23T05:27:42.025Z,56.25
2023-05-23T05:28:42.023Z,50.63
2023-05-23T05:29:42.029Z,50.63
2023-05-23T05:30:42.224Z,50.63
2023-05-23T05:31:42.034Z,50.63
2023-05-23T05:32:42.026Z,50.63
2023-05-23T05:33:42.089Z,56.25
2023-05-23T05:34:41.998Z,56.25
2023-05-23T05:35:41.993Z,61.88
2023-05-23T05:36:41.992Z,67.50
2023-05-23T05:37:41.990Z,73.13
2023-05-23T05:38:41.999Z,78.75
2023-05-23T05:39:41.982Z,73.13
2023-05-23T05:40:42.136Z,61.88
2023-05-23T05:41:41.967Z,56.25
2023-05-23T05:42:41.964Z,56.25
2023-05-23T05:43:41.974Z,50.63
2023-05-23T05:44:42.013Z,50.63
2023-05-23T05:45:41.953Z,50.63
2023-05-23T05:46:41.977Z,50.63
2023-05-23T05:47:42.003Z,56.25
2023-05-23T05:48:41.939Z,56.25
2023-05-23T05:49:42.024Z,50.63
2023-05-23T05:50:42.117Z,50.63
2023-05-23T05:51:41.930Z,50.63
2023-05-23T05:52:41.924Z,50.63
2023-05-23T05:53:41.923Z,50.63
2023-05-23T05:54:41.916Z,56.25
2023-05-23T05:55:41.910Z,61.88
2023-05-23T05:56:41.908Z,67.50
2023-05-23T05:57:41.903Z,73.13
2023-05-23T05:58:41.899Z,73.13
2023-05-23T05:59:41.920Z,78.75
2023-05-23T06:00:42.168Z,78.75
2023-05-23T06:01:41.890Z,78.75
2023-05-23T06:02:41.967Z,90.00
2023-05-23T06:03:42.050Z,90.00
2023-05-23T06:04:41.918Z,90.00
2023-05-23T06:05:41.959Z,95.63
2023-05-23T06:06:41.886Z,95.63
2023-05-23T06:07:41.893Z,106.88
2023-05-23T06:08:41.859Z,123.75
2023-05-23T06:09:41.863Z,123.75
2023-05-23T06:10:42.267Z,106.88
2023-05-23T06:11:41.849Z,101.25
2023-05-23T06:12:41.839Z,95.63
2023-05-23T06:13:41.841Z,95.63
2023-05-23T06:14:41.834Z,95.63
2023-05-23T06:15:41.837Z,101.25
2023-05-23T06:16:41.864Z,106.88
2023-05-23T06:17:41.893Z,106.88
2023-05-23T06:18:41.821Z,101.25
2023-05-23T06:19:41.812Z,101.25
2023-05-23T06:20:41.982Z,101.25
2023-05-23T06:21:41.943Z,95.63
2023-05-23T06:22:41.809Z,95.63
2023-05-23T06:23:41.806Z,90.00
2023-05-23T06:24:41.806Z,90.00
2023-05-23T06:25:41.801Z,84.38
2023-05-23T06:26:41.787Z,84.38
2023-05-23T06:27:41.783Z,84.38
2023-05-23T06:28:41.802Z,90.00
2023-05-23T06:29:41.779Z,90.00
2023-05-23T06:30:42.075Z,95.63
2023-05-23T06:31:41.813Z,101.25
2023-05-23T06:32:41.784Z,106.88
2023-05-23T06:33:41.761Z,112.50
2023-05-23T06:34:41.759Z,118.13
2023-05-23T06:35:41.752Z,118.13
2023-05-23T06:36:41.748Z,118.13
2023-05-23T06:37:41.806Z,123.75
2023-05-23T06:38:41.759Z,129.38
2023-05-23T06:39:41.741Z,135.00
2023-05-23T06:40:41.918Z,140.63
2023-05-23T06:41:41.727Z,146.25
2023-05-23T06:42:41.757Z,157.50
2023-05-23T06:43:41.716Z,174.38
2023-05-23T06:44:41.718Z,191.25
2023-05-23T06:45:41.727Z,208.13
2023-05-23T06:46:41.706Z,219.38
2023-05-23T06:47:41.756Z,225.00
2023-05-23T06:48:41.700Z,258.75
2023-05-23T06:49:41.697Z,298.13
2023-05-23T06:50:42.070Z,320.63
2023-05-23T06:51:41.818Z,337.50
2023-05-23T06:52:41.684Z,337.50
2023-05-23T06:53:41.766Z,360.00
2023-05-23T06:54:41.676Z,433.13
2023-05-23T06:55:41.673Z,534.38
2023-05-23T06:56:41.676Z,1158.75
2023-05-23T06:57:41.668Z,1434.38
2023-05-23T06:58:41.665Z,1299.38
2023-05-23T06:59:41.656Z,714.38
2023-05-23T07:00:42.025Z,652.50
2023-05-23T07:01:41.673Z,855.00
2023-05-23T07:02:41.720Z,630.00
2023-05-23T07:03:41.647Z,652.50
2023-05-23T07:04:41.649Z,472.50
2023-05-23T07:05:41.725Z,416.25
2023-05-23T07:06:41.639Z,405.00
2023-05-23T07:07:41.636Z,388.13
2023-05-23T07:08:41.631Z,365.63
2023-05-23T07:09:41.661Z,365.63
2023-05-23T07:10:42.143Z,343.13
2023-05-23T07:11:41.625Z,303.75
2023-05-23T07:12:41.620Z,275.63
2023-05-23T07:13:41.621Z,258.75
2023-05-23T07:14:41.619Z,258.75
2023-05-23T07:15:41.623Z,264.38
2023-05-23T07:16:41.673Z,264.38
2023-05-23T07:17:41.675Z,253.13
2023-05-23T07:18:41.609Z,236.25
2023-05-23T07:19:41.636Z,225.00
2023-05-23T07:20:41.922Z,225.00
2023-05-23T07:21:41.601Z,230.63
2023-05-23T07:22:41.603Z,247.50
2023-05-23T07:23:41.595Z,258.75
2023-05-23T07:24:41.596Z,253.13
2023-05-23T07:25:47.075Z,247.50
2023-05-23T07:26:41.597Z,241.88
2023-05-23T07:27:41.592Z,241.88
2023-05-23T07:28:41.584Z,247.50
2023-05-23T07:29:41.589Z,258.75
2023-05-23T07:30:41.697Z,270.00
2023-05-23T07:31:41.679Z,286.88
2023-05-23T07:32:41.587Z,298.13
2023-05-23T07:33:41.577Z,320.63
2023-05-23T07:34:41.579Z,348.75
2023-05-23T07:35:41.567Z,365.63
2023-05-23T07:36:41.564Z,365.63
2023-05-23T07:37:41.571Z,376.88
2023-05-23T07:38:41.568Z,405.00
2023-05-23T07:39:41.562Z,421.88
2023-05-23T07:40:41.762Z,433.13
2023-05-23T07:41:41.560Z,438.75
2023-05-23T07:42:41.554Z,421.88
2023-05-23T07:43:41.688Z,427.50
2023-05-23T07:44:41.552Z,444.38
2023-05-23T07:45:41.548Z,506.25
2023-05-23T07:46:41.598Z,843.75
2023-05-23T07:47:41.549Z,511.88
2023-05-23T07:48:41.547Z,500.63
2023-05-23T07:49:41.537Z,517.50
2023-05-23T07:50:41.681Z,506.25
2023-05-23T07:51:41.534Z,466.88
2023-05-23T07:52:41.544Z,528.75
2023-05-23T07:53:41.538Z,2671.88
2023-05-23T07:54:41.533Z,1445.63
2023-05-23T07:55:41.530Z,2880.00
2023-05-23T07:56:41.532Z,1822.50
2023-05-23T07:57:41.526Z,1597.50
2023-05-23T07:58:41.522Z,2700.00
2023-05-23T07:59:41.533Z,1254.38
2023-05-23T08:00:41.699Z,1479.38
2023-05-23T08:01:41.553Z,1170.00
2023-05-23T08:02:41.589Z,843.75
2023-05-23T08:03:41.520Z,1091.25
2023-05-23T08:04:41.676Z,961.88
2023-05-23T08:05:41.530Z,2750.63
2023-05-23T08:06:51.957Z,2379.38
2023-05-23T08:07:41.524Z,1220.63
2023-05-23T08:08:41.521Z,793.13
2023-05-23T08:09:41.534Z,691.88
2023-05-23T08:10:41.770Z,714.38
2023-05-23T08:11:41.524Z,613.13
2023-05-23T08:12:41.524Z,787.50
2023-05-23T08:13:41.524Z,1333.13
2023-05-23T08:14:50.578Z,1243.13
2023-05-23T08:15:41.538Z,1288.13
2023-05-23T08:16:41.596Z,815.63
2023-05-23T08:17:41.617Z,545.63
2023-05-23T08:18:41.576Z,523.13
2023-05-23T08:19:41.549Z,517.50
2023-05-23T08:20:41.823Z,500.63
2023-05-23T08:21:41.541Z,483.75
2023-05-23T08:22:41.534Z,478.13
2023-05-23T08:23:41.558Z,478.13
2023-05-23T08:24:41.535Z,478.13
2023-05-23T08:25:41.538Z,472.50
2023-05-23T08:26:41.533Z,483.75
2023-05-23T08:27:41.539Z,540.00
2023-05-23T08:28:41.541Z,573.75
2023-05-23T08:29:41.538Z,596.25
2023-05-23T08:30:41.721Z,579.38
2023-05-23T08:31:41.571Z,568.13
2023-05-23T08:32:41.540Z,551.25
2023-05-23T08:33:41.542Z,528.75
2023-05-23T08:34:41.556Z,511.88
2023-05-23T08:35:41.538Z,523.13
2023-05-23T08:36:41.536Z,523.13
2023-05-23T08:37:41.539Z,551.25
2023-05-23T08:38:41.546Z,596.25
2023-05-23T08:39:41.533Z,630.00
2023-05-23T08:40:41.707Z,641.25
2023-05-23T08:41:41.539Z,613.13
2023-05-23T08:42:41.638Z,545.63
2023-05-23T08:43:41.537Z,534.38
2023-05-23T08:44:41.534Z,511.88
2023-05-23T08:45:41.538Z,551.25
2023-05-23T08:46:41.547Z,596.25
2023-05-23T08:47:41.561Z,624.38
2023-05-23T08:48:41.531Z,748.13
2023-05-23T08:49:41.532Z,1434.38
2023-05-23T08:50:41.785Z,810.00
2023-05-23T08:51:41.528Z,1125.00
2023-05-23T08:52:41.534Z,1035.00
2023-05-23T08:53:41.527Z,725.63
2023-05-23T08:54:41.525Z,804.38
2023-05-23T08:55:41.751Z,686.25
2023-05-23T08:56:41.533Z,866.25
2023-05-23T08:57:41.536Z,765.00
2023-05-23T08:58:41.525Z,630.00
2023-05-23T08:59:41.529Z,624.38
2023-05-23T09:00:41.656Z,630.00
2023-05-23T09:01:41.642Z,646.88
2023-05-23T09:02:41.586Z,590.63
2023-05-23T09:03:41.525Z,601.88
2023-05-23T09:04:41.523Z,630.00
2023-05-23T09:05:41.576Z,630.00
2023-05-23T09:06:41.581Z,601.88
2023-05-23T09:07:41.544Z,590.63
2023-05-23T09:08:41.521Z,585.00
2023-05-23T09:09:41.565Z,601.88
2023-05-23T09:10:41.709Z,624.38
2023-05-23T09:11:41.526Z,630.00
2023-05-23T09:12:41.532Z,607.50
2023-05-23T09:13:41.526Z,579.38
2023-05-23T09:14:41.526Z,573.75
2023-05-23T09:15:41.528Z,579.38
2023-05-23T09:16:41.851Z,579.38
2023-05-23T09:17:41.723Z,573.75
2023-05-23T09:18:41.564Z,562.50
2023-05-23T09:19:41.575Z,562.50
2023-05-23T09:20:41.867Z,573.75
2023-05-23T09:21:41.532Z,585.00
2023-05-23T09:22:41.535Z,585.00
2023-05-23T09:23:41.536Z,568.13
2023-05-23T09:24:41.536Z,545.63
2023-05-23T09:25:41.535Z,573.75
2023-05-23T09:26:41.542Z,562.50
2023-05-23T09:27:41.541Z,568.13
2023-05-23T09:28:41.546Z,534.38
2023-05-23T09:29:41.556Z,540.00
2023-05-23T09:30:41.761Z,540.00
2023-05-23T09:31:41.638Z,540.00
2023-05-23T09:32:41.603Z,528.75
2023-05-23T09:33:41.551Z,511.88
2023-05-23T09:34:41.550Z,551.25
2023-05-23T09:35:41.554Z,562.50
2023-05-23T09:36:41.548Z,585.00
2023-05-23T09:37:41.572Z,613.13
2023-05-23T09:38:41.557Z,641.25
2023-05-23T09:39:41.567Z,675.00
2023-05-23T09:40:41.808Z,630.00
2023-05-23T09:41:41.575Z,601.88
2023-05-23T09:42:41.553Z,590.63
2023-05-23T09:43:41.554Z,579.38
2023-05-23T09:44:41.552Z,573.75
2023-05-23T09:45:41.554Z,590.63
2023-05-23T09:46:41.598Z,585.00
2023-05-23T09:47:41.565Z,579.38
2023-05-23T09:48:41.559Z,556.88
2023-05-23T09:49:41.561Z,523.13
2023-05-23T09:50:41.751Z,562.50
2023-05-23T09:51:41.564Z,540.00
2023-05-23T09:52:41.561Z,517.50
2023-05-23T09:53:41.561Z,506.25
2023-05-23T09:54:41.567Z,534.38
2023-05-23T09:55:41.567Z,483.75
2023-05-23T09:56:41.578Z,444.38
2023-05-23T09:57:41.563Z,472.50
2023-05-23T09:58:41.563Z,438.75
2023-05-23T09:59:41.578Z,444.38
2023-05-23T10:00:41.839Z,450.00
2023-05-23T10:01:41.609Z,483.75
2023-05-23T10:02:41.603Z,500.63
2023-05-23T10:03:41.573Z,472.50
2023-05-23T10:04:41.641Z,455.63
2023-05-23T10:05:41.576Z,483.75
2023-05-23T10:06:41.565Z,534.38
2023-05-23T10:07:41.571Z,534.38
2023-05-23T10:08:41.571Z,534.38
2023-05-23T10:09:41.614Z,534.38
2023-05-23T10:10:41.821Z,607.50
2023-05-23T10:11:41.571Z,618.75
2023-05-23T10:12:41.594Z,613.13
2023-05-23T10:13:41.586Z,607.50
2023-05-23T10:14:41.572Z,596.25
2023-05-23T10:15:41.573Z,573.75
2023-05-23T10:16:41.622Z,556.88
2023-05-23T10:17:41.633Z,556.88
2023-05-23T10:18:41.580Z,511.88
2023-05-23T10:19:41.621Z,427.50
2023-05-23T10:20:41.942Z,405.00
2023-05-23T10:21:42.333Z,450.00
2023-05-23T10:22:41.578Z,523.13
2023-05-23T10:23:41.579Z,545.63
2023-05-23T10:24:41.581Z,534.38
2023-05-23T10:25:41.581Z,489.38
2023-05-23T10:26:41.584Z,461.25
2023-05-23T10:27:41.595Z,450.00
2023-05-23T10:28:41.581Z,450.00
2023-05-23T10:29:41.598Z,478.13
2023-05-23T10:30:41.994Z,483.75
2023-05-23T10:31:41.667Z,461.25
2023-05-23T10:32:41.599Z,450.00
2023-05-23T10:33:41.588Z,461.25
2023-05-23T10:34:41.591Z,455.63
2023-05-23T10:35:41.671Z,478.13
2023-05-23T10:36:41.592Z,517.50
2023-05-23T10:37:41.584Z,556.88
2023-05-23T10:38:41.589Z,556.88
2023-05-23T10:39:41.586Z,517.50
2023-05-23T10:40:41.937Z,489.38
2023-05-23T10:41:41.583Z,466.88
2023-05-23T10:42:41.598Z,517.50
2023-05-23T10:43:41.598Z,568.13
2023-05-23T10:44:41.595Z,590.63
2023-05-23T10:45:41.611Z,562.50
2023-05-23T10:46:41.598Z,523.13
2023-05-23T10:47:41.622Z,466.88
2023-05-23T10:48:41.590Z,421.88
2023-05-23T10:49:41.621Z,388.13
2023-05-23T10:50:42.129Z,343.13
2023-05-23T10:51:41.590Z,298.13
2023-05-23T10:52:41.650Z,309.38
2023-05-23T10:53:41.628Z,354.38
2023-05-23T10:54:41.592Z,399.38
2023-05-23T10:55:41.592Z,438.75
2023-05-23T10:56:41.589Z,483.75
2023-05-23T10:57:41.588Z,506.25
2023-05-23T10:58:41.604Z,551.25
2023-05-23T10:59:41.584Z,562.50
2023-05-23T11:00:41.899Z,556.88
2023-05-23T11:01:41.606Z,545.63
2023-05-23T11:02:41.643Z,523.13
2023-05-23T11:03:41.774Z,506.25
2023-05-23T11:04:41.607Z,500.63
2023-05-23T11:05:41.590Z,506.25
2023-05-23T11:06:41.588Z,506.25
2023-05-23T11:07:41.688Z,483.75
2023-05-23T11:08:47.769Z,461.25
2023-05-23T11:09:41.593Z,433.13
2023-05-23T11:10:41.817Z,410.63
2023-05-23T11:11:41.590Z,405.00
2023-05-23T11:12:41.602Z,421.88
2023-05-23T11:13:41.592Z,450.00
2023-05-23T11:14:41.589Z,433.13
2023-05-23T11:15:41.595Z,405.00
2023-05-23T11:16:41.736Z,393.75
2023-05-23T11:17:41.610Z,382.50
2023-05-23T11:18:41.588Z,376.88
2023-05-23T11:19:41.650Z,365.63
2023-05-23T11:20:41.816Z,348.75
2023-05-23T11:21:41.594Z,365.63
2023-05-23T11:22:41.588Z,371.25
2023-05-23T11:23:41.637Z,376.88
2023-05-23T11:24:41.585Z,382.50
2023-05-23T11:25:41.584Z,388.13
2023-05-23T11:26:41.584Z,388.13
2023-05-23T11:27:41.615Z,399.38
2023-05-23T11:28:41.583Z,416.25
2023-05-23T11:29:41.604Z,427.50
2023-05-23T11:30:41.999Z,438.75
2023-05-23T11:31:41.610Z,433.13
2023-05-23T11:32:41.619Z,455.63
2023-05-23T11:33:41.623Z,466.88
2023-05-23T11:34:41.607Z,478.13
2023-05-23T11:35:41.658Z,466.88
2023-05-23T11:36:41.633Z,427.50
2023-05-23T11:37:41.597Z,348.75
2023-05-23T11:38:41.589Z,315.00
2023-05-23T11:39:41.655Z,281.25
2023-05-23T11:40:42.277Z,247.50
2023-05-23T11:41:41.682Z,236.25
2023-05-23T11:42:41.634Z,258.75
2023-05-23T11:43:41.669Z,281.25
2023-05-23T11:44:41.708Z,292.50
2023-05-23T11:45:41.719Z,315.00
2023-05-23T11:46:41.640Z,331.88
2023-05-23T11:47:41.688Z,360.00
2023-05-23T11:48:41.719Z,388.13
2023-05-23T11:49:41.653Z,421.88
2023-05-23T11:50:41.902Z,444.38
2023-05-23T11:51:41.585Z,450.00
2023-05-23T11:52:41.573Z,455.63
2023-05-23T11:53:41.570Z,455.63
2023-05-23T11:54:41.573Z,450.00
2023-05-23T11:55:41.581Z,455.63
2023-05-23T11:56:41.570Z,472.50
2023-05-23T11:57:41.565Z,489.38
2023-05-23T11:58:41.596Z,506.25
2023-05-23T11:59:41.566Z,511.88
2023-05-23T12:00:41.782Z,511.88
2023-05-23T12:01:41.591Z,506.25
2023-05-23T12:02:41.809Z,495.00
2023-05-23T12:03:41.706Z,472.50
2023-05-23T12:04:41.628Z,427.50
2023-05-23T12:05:41.565Z,337.50
2023-05-23T12:06:41.584Z,320.63
2023-05-23T12:07:41.615Z,348.75
2023-05-23T12:08:41.593Z,315.00
2023-05-23T12:09:41.549Z,309.38
2023-05-23T12:10:41.881Z,337.50
2023-05-23T12:11:41.552Z,331.88
2023-05-23T12:12:41.551Z,292.50
2023-05-23T12:13:41.552Z,270.00
2023-05-23T12:14:41.555Z,309.38
2023-05-23T12:15:41.588Z,354.38
2023-05-23T12:16:41.615Z,337.50
2023-05-23T12:17:41.562Z,326.25
2023-05-23T12:18:41.541Z,331.88
2023-05-23T12:19:41.641Z,315.00
2023-05-23T12:20:41.764Z,303.75
2023-05-23T12:21:41.545Z,270.00
2023-05-23T12:22:41.542Z,281.25
2023-05-23T12:23:41.537Z,275.63
2023-05-23T12:24:41.540Z,309.38
2023-05-23T12:25:41.716Z,331.88
2023-05-23T12:26:41.551Z,354.38
2023-05-23T12:27:41.597Z,354.38
2023-05-23T12:28:41.555Z,320.63
2023-05-23T12:29:41.561Z,303.75
2023-05-23T12:30:41.696Z,331.88
2023-05-23T12:31:41.613Z,365.63
2023-05-23T12:32:41.609Z,365.63
2023-05-23T12:33:41.519Z,382.50
2023-05-23T12:34:41.521Z,371.25
2023-05-23T12:35:41.668Z,405.00
2023-05-23T12:36:48.607Z,388.13
2023-05-23T12:37:41.532Z,348.75
2023-05-23T12:38:41.521Z,343.13
2023-05-23T12:39:41.512Z,320.63
2023-05-23T12:40:41.511Z,270.00
2023-05-23T12:41:41.512Z,281.25
2023-05-23T12:42:41.513Z,326.25
2023-05-23T12:43:41.504Z,354.38
2023-05-23T12:44:41.531Z,376.88
2023-05-23T12:45:41.755Z,360.00
2023-05-23T12:46:41.530Z,303.75